sensor_id;sensor_type;location;lat;lon;timestamp;P1;durP1;ratioP1;P2;durP2;ratioP2
21162;SDS011;10739;52.198;20.908;2023-10-19T00:01:15;73.50;;;38.55;;
21162;SDS011;10739;52.198;20.908;2023-10-19T00:03:43;65.70;;;35.58;;
21162;SDS011;10739;52.198;20.908;2023-10-19T00:06:15;64.03;;;35.75;;
21162;SDS011;10739;52.198;20.908;2023-10-19T00:08:43;63.70;;;36.03;;
21162;SDS011;10739;52.198;20.908;2023-10-19T00:11:10;68.55;;;35.92;;
21162;SDS011;10739;52.198;20.908;2023-10-19T00:13:47;56.75;;;32.67;;
21162;SDS011;10739;52.198;20.908;2023-10-19T00:16:19;64.15;;;35.03;;
21162;SDS011;10739;52.198;20.908;2023-10-19T00:18:54;62.47;;;33.15;;
21162;SDS011;10739;52.198;20.908;2023-10-19T00:21:24;62.90;;;33.38;;
21162;SDS011;10739;52.198;20.908;2023-10-19T00:23:52;60.28;;;34.85;;
21162;SDS011;10739;52.198;20.908;2023-10-19T00:26:30;66.68;;;35.40;;
21162;SDS011;10739;52.198;20.908;2023-10-19T00:28:56;66.72;;;35.45;;
21162;SDS011;10739;52.198;20.908;2023-10-19T00:31:23;69.55;;;38.55;;
21162;SDS011;10739;52.198;20.908;2023-10-19T00:33:53;69.35;;;36.92;;
21162;SDS011;10739;52.198;20.908;2023-10-19T00:36:21;71.00;;;38.75;;
21162;SDS011;10739;52.198;20.908;2023-10-19T00:38:48;66.60;;;37.60;;
21162;SDS011;10739;52.198;20.908;2023-10-19T00:41:21;73.78;;;39.50;;
21162;SDS011;10739;52.198;20.908;2023-10-19T00:43:54;60.00;;;36.25;;
21162;SDS011;10739;52.198;20.908;2023-10-19T00:49:09;60.47;;;35.63;;
21162;SDS011;10739;52.198;20.908;2023-10-19T00:51:48;68.67;;;38.60;;
21162;SDS011;10739;52.198;20.908;2023-10-19T00:54:27;62.53;;;37.70;;
21162;SDS011;10739;52.198;20.908;2023-10-19T00:57:03;70.70;;;39.80;;
21162;SDS011;10739;52.198;20.908;2023-10-19T00:59:35;68.78;;;38.63;;
21162;SDS011;10739;52.198;20.908;2023-10-19T01:02:13;68.13;;;39.00;;
21162;SDS011;10739;52.198;20.908;2023-10-19T01:04:46;69.63;;;37.50;;
21162;SDS011;10739;52.198;20.908;2023-10-19T01:07:33;64.68;;;36.85;;
21162;SDS011;10739;52.198;20.908;2023-10-19T01:10:04;67.22;;;37.33;;
21162;SDS011;10739;52.198;20.908;2023-10-19T01:12:36;60.28;;;36.75;;
21162;SDS011;10739;52.198;20.908;2023-10-19T01:17:40;66.97;;;37.88;;
21162;SDS011;10739;52.198;20.908;2023-10-19T01:20:13;63.40;;;35.63;;
21162;SDS011;10739;52.198;20.908;2023-10-19T01:22:51;58.10;;;35.88;;
21162;SDS011;10739;52.198;20.908;2023-10-19T01:28:23;59.83;;;37.45;;
21162;SDS011;10739;52.198;20.908;2023-10-19T01:31:12;63.90;;;35.17;;
21162;SDS011;10739;52.198;20.908;2023-10-19T01:34:01;59.65;;;35.15;;
21162;SDS011;10739;52.198;20.908;2023-10-19T01:36:31;59.28;;;35.88;;
21162;SDS011;10739;52.198;20.908;2023-10-19T01:39:07;60.67;;;35.47;;
21162;SDS011;10739;52.198;20.908;2023-10-19T01:41:37;60.08;;;35.88;;
21162;SDS011;10739;52.198;20.908;2023-10-19T01:44:06;62.08;;;38.00;;
21162;SDS011;10739;52.198;20.908;2023-10-19T01:46:33;65.55;;;36.83;;
21162;SDS011;10739;52.198;20.908;2023-10-19T01:49:01;62.63;;;37.03;;
21162;SDS011;10739;52.198;20.908;2023-10-19T01:51:30;62.10;;;35.97;;
21162;SDS011;10739;52.198;20.908;2023-10-19T01:54:02;58.97;;;35.15;;
21162;SDS011;10739;52.198;20.908;2023-10-19T01:56:28;59.60;;;36.10;;
21162;SDS011;10739;52.198;20.908;2023-10-19T01:58:55;53.22;;;33.50;;
21162;SDS011;10739;52.198;20.908;2023-10-19T02:01:22;60.63;;;34.55;;
21162;SDS011;10739;52.198;20.908;2023-10-19T02:03:52;59.95;;;34.75;;
21162;SDS011;10739;52.198;20.908;2023-10-19T02:06:29;58.25;;;35.65;;
21162;SDS011;10739;52.198;20.908;2023-10-19T02:09:09;60.35;;;36.17;;
21162;SDS011;10739;52.198;20.908;2023-10-19T02:11:47;62.10;;;37.05;;
21162;SDS011;10739;52.198;20.908;2023-10-19T02:14:22;57.67;;;35.97;;
21162;SDS011;10739;52.198;20.908;2023-10-19T02:16:52;67.28;;;36.97;;
21162;SDS011;10739;52.198;20.908;2023-10-19T02:19:25;64.88;;;36.00;;
21162;SDS011;10739;52.198;20.908;2023-10-19T02:21:53;58.90;;;36.47;;
21162;SDS011;10739;52.198;20.908;2023-10-19T02:24:25;65.97;;;37.10;;
21162;SDS011;10739;52.198;20.908;2023-10-19T02:26:52;62.33;;;37.15;;
21162;SDS011;10739;52.198;20.908;2023-10-19T02:29:22;61.88;;;37.28;;
21162;SDS011;10739;52.198;20.908;2023-10-19T02:31:51;62.83;;;36.95;;
21162;SDS011;10739;52.198;20.908;2023-10-19T02:34:18;65.97;;;36.88;;
21162;SDS011;10739;52.198;20.908;2023-10-19T02:36:45;61.65;;;36.70;;
21162;SDS011;10739;52.198;20.908;2023-10-19T02:39:15;63.75;;;36.40;;
21162;SDS011;10739;52.198;20.908;2023-10-19T02:41:45;59.97;;;37.25;;
21162;SDS011;10739;52.198;20.908;2023-10-19T02:44:18;61.83;;;37.33;;
21162;SDS011;10739;52.198;20.908;2023-10-19T02:46:49;61.67;;;36.55;;
21162;SDS011;10739;52.198;20.908;2023-10-19T02:49:21;65.63;;;36.97;;
21162;SDS011;10739;52.198;20.908;2023-10-19T02:51:49;59.47;;;35.45;;
21162;SDS011;10739;52.198;20.908;2023-10-19T02:54:18;57.90;;;34.47;;
21162;SDS011;10739;52.198;20.908;2023-10-19T02:56:55;60.97;;;34.25;;
21162;SDS011;10739;52.198;20.908;2023-10-19T02:59:25;55.35;;;34.38;;
21162;SDS011;10739;52.198;20.908;2023-10-19T03:01:59;61.65;;;35.63;;
21162;SDS011;10739;52.198;20.908;2023-10-19T03:04:27;54.53;;;34.60;;
21162;SDS011;10739;52.198;20.908;2023-10-19T03:06:56;52.97;;;34.13;;
21162;SDS011;10739;52.198;20.908;2023-10-19T03:09:22;59.60;;;35.15;;
21162;SDS011;10739;52.198;20.908;2023-10-19T03:11:53;59.70;;;34.50;;
21162;SDS011;10739;52.198;20.908;2023-10-19T03:14:25;60.97;;;34.70;;
21162;SDS011;10739;52.198;20.908;2023-10-19T03:16:52;58.22;;;35.75;;
21162;SDS011;10739;52.198;20.908;2023-10-19T03:19:20;54.83;;;33.63;;
21162;SDS011;10739;52.198;20.908;2023-10-19T03:21:47;52.75;;;33.58;;
21162;SDS011;10739;52.198;20.908;2023-10-19T03:24:17;55.58;;;33.72;;
21162;SDS011;10739;52.198;20.908;2023-10-19T03:27:07;54.45;;;32.88;;
21162;SDS011;10739;52.198;20.908;2023-10-19T03:29:41;53.00;;;32.40;;
21162;SDS011;10739;52.198;20.908;2023-10-19T03:34:44;51.47;;;31.13;;
21162;SDS011;10739;52.198;20.908;2023-10-19T03:37:15;48.97;;;32.40;;
21162;SDS011;10739;52.198;20.908;2023-10-19T03:39:42;53.65;;;34.38;;
21162;SDS011;10739;52.198;20.908;2023-10-19T03:42:11;48.75;;;31.40;;
21162;SDS011;10739;52.198;20.908;2023-10-19T03:44:40;50.85;;;33.28;;
21162;SDS011;10739;52.198;20.908;2023-10-19T03:47:16;56.80;;;32.70;;
21162;SDS011;10739;52.198;20.908;2023-10-19T03:49:46;53.15;;;33.38;;
21162;SDS011;10739;52.198;20.908;2023-10-19T03:52:13;54.40;;;34.13;;
21162;SDS011;10739;52.198;20.908;2023-10-19T03:54:39;53.63;;;33.58;;
21162;SDS011;10739;52.198;20.908;2023-10-19T03:57:07;52.95;;;32.25;;
21162;SDS011;10739;52.198;20.908;2023-10-19T03:59:44;52.60;;;32.30;;
21162;SDS011;10739;52.198;20.908;2023-10-19T04:02:15;59.13;;;32.33;;
21162;SDS011;10739;52.198;20.908;2023-10-19T04:04:46;56.75;;;35.13;;
21162;SDS011;10739;52.198;20.908;2023-10-19T04:07:14;53.78;;;31.55;;
21162;SDS011;10739;52.198;20.908;2023-10-19T04:09:43;52.28;;;33.03;;
21162;SDS011;10739;52.198;20.908;2023-10-19T04:12:28;88.40;;;43.00;;
21162;SDS011;10739;52.198;20.908;2023-10-19T04:14:55;62.25;;;35.08;;
21162;SDS011;10739;52.198;20.908;2023-10-19T04:17:22;54.40;;;32.83;;
21162;SDS011;10739;52.198;20.908;2023-10-19T04:19:50;52.78;;;32.58;;
21162;SDS011;10739;52.198;20.908;2023-10-19T04:22:17;56.20;;;30.77;;
21162;SDS011;10739;52.198;20.908;2023-10-19T04:24:50;107.38;;;50.80;;
21162;SDS011;10739;52.198;20.908;2023-10-19T04:27:16;60.20;;;34.58;;
21162;SDS011;10739;52.198;20.908;2023-10-19T04:29:46;48.63;;;31.20;;
21162;SDS011;10739;52.198;20.908;2023-10-19T04:32:15;114.35;;;50.00;;
21162;SDS011;10739;52.198;20.908;2023-10-19T04:34:51;59.88;;;34.22;;
21162;SDS011;10739;52.198;20.908;2023-10-19T04:37:18;48.33;;;30.92;;
21162;SDS011;10739;52.198;20.908;2023-10-19T04:39:45;53.05;;;31.70;;
21162;SDS011;10739;52.198;20.908;2023-10-19T04:42:11;49.95;;;30.13;;
21162;SDS011;10739;52.198;20.908;2023-10-19T04:44:38;55.33;;;32.75;;
21162;SDS011;10739;52.198;20.908;2023-10-19T04:47:05;50.25;;;32.30;;
21162;SDS011;10739;52.198;20.908;2023-10-19T04:49:31;49.88;;;31.17;;
21162;SDS011;10739;52.198;20.908;2023-10-19T04:52:00;48.92;;;31.48;;
21162;SDS011;10739;52.198;20.908;2023-10-19T04:54:26;51.20;;;31.23;;
21162;SDS011;10739;52.198;20.908;2023-10-19T04:56:52;48.47;;;31.17;;
21162;SDS011;10739;52.198;20.908;2023-10-19T04:59:21;50.15;;;30.83;;
21162;SDS011;10739;52.198;20.908;2023-10-19T05:01:47;54.13;;;31.48;;
21162;SDS011;10739;52.198;20.908;2023-10-19T05:04:16;57.28;;;32.00;;
21162;SDS011;10739;52.198;20.908;2023-10-19T05:06:43;56.13;;;31.67;;
21162;SDS011;10739;52.198;20.908;2023-10-19T05:09:09;51.33;;;32.28;;
21162;SDS011;10739;52.198;20.908;2023-10-19T05:11:37;52.47;;;31.33;;
21162;SDS011;10739;52.198;20.908;2023-10-19T05:14:05;49.28;;;31.80;;
21162;SDS011;10739;52.198;20.908;2023-10-19T05:16:31;53.80;;;32.17;;
21162;SDS011;10739;52.198;20.908;2023-10-19T05:18:57;53.42;;;31.67;;
21162;SDS011;10739;52.198;20.908;2023-10-19T05:21:23;58.00;;;34.30;;
21162;SDS011;10739;52.198;20.908;2023-10-19T05:23:50;53.58;;;32.80;;
21162;SDS011;10739;52.198;20.908;2023-10-19T05:26:16;54.97;;;31.75;;
21162;SDS011;10739;52.198;20.908;2023-10-19T05:28:42;49.30;;;31.75;;
21162;SDS011;10739;52.198;20.908;2023-10-19T05:31:08;55.38;;;30.58;;
21162;SDS011;10739;52.198;20.908;2023-10-19T05:33:37;52.25;;;30.52;;
21162;SDS011;10739;52.198;20.908;2023-10-19T05:36:03;50.83;;;30.02;;
21162;SDS011;10739;52.198;20.908;2023-10-19T05:38:30;42.58;;;28.65;;
21162;SDS011;10739;52.198;20.908;2023-10-19T05:40:58;47.00;;;29.48;;
21162;SDS011;10739;52.198;20.908;2023-10-19T05:43:26;55.83;;;29.40;;
21162;SDS011;10739;52.198;20.908;2023-10-19T05:45:53;48.38;;;28.77;;
21162;SDS011;10739;52.198;20.908;2023-10-19T05:48:20;54.67;;;30.13;;
21162;SDS011;10739;52.198;20.908;2023-10-19T05:50:46;47.28;;;29.25;;
21162;SDS011;10739;52.198;20.908;2023-10-19T05:53:12;42.83;;;27.65;;
21162;SDS011;10739;52.198;20.908;2023-10-19T05:55:39;45.70;;;27.83;;
21162;SDS011;10739;52.198;20.908;2023-10-19T05:58:05;39.88;;;27.25;;
21162;SDS011;10739;52.198;20.908;2023-10-19T06:00:31;46.38;;;29.33;;
21162;SDS011;10739;52.198;20.908;2023-10-19T06:02:57;52.25;;;28.80;;
21162;SDS011;10739;52.198;20.908;2023-10-19T06:05:25;47.35;;;27.45;;
21162;SDS011;10739;52.198;20.908;2023-10-19T06:07:51;49.88;;;28.30;;
21162;SDS011;10739;52.198;20.908;2023-10-19T06:10:18;50.78;;;29.13;;
21162;SDS011;10739;52.198;20.908;2023-10-19T06:12:51;44.90;;;28.98;;
21162;SDS011;10739;52.198;20.908;2023-10-19T06:15:18;43.88;;;26.88;;
21162;SDS011;10739;52.198;20.908;2023-10-19T06:17:47;51.42;;;28.48;;
21162;SDS011;10739;52.198;20.908;2023-10-19T06:20:15;47.97;;;27.52;;
21162;SDS011;10739;52.198;20.908;2023-10-19T06:23:00;47.10;;;30.25;;
21162;SDS011;10739;52.198;20.908;2023-10-19T06:25:31;51.10;;;31.83;;
21162;SDS011;10739;52.198;20.908;2023-10-19T06:28:02;53.75;;;32.90;;
21162;SDS011;10739;52.198;20.908;2023-10-19T06:30:29;52.30;;;33.28;;
21162;SDS011;10739;52.198;20.908;2023-10-19T06:32:58;45.30;;;29.90;;
21162;SDS011;10739;52.198;20.908;2023-10-19T06:35:26;52.83;;;29.38;;
21162;SDS011;10739;52.198;20.908;2023-10-19T06:37:57;43.65;;;28.70;;
21162;SDS011;10739;52.198;20.908;2023-10-19T06:40:29;43.38;;;26.90;;
21162;SDS011;10739;52.198;20.908;2023-10-19T06:42:57;51.45;;;27.92;;
21162;SDS011;10739;52.198;20.908;2023-10-19T06:45:24;46.50;;;26.42;;
21162;SDS011;10739;52.198;20.908;2023-10-19T06:47:52;47.13;;;27.08;;
21162;SDS011;10739;52.198;20.908;2023-10-19T06:50:21;47.45;;;27.23;;
21162;SDS011;10739;52.198;20.908;2023-10-19T06:52:49;43.28;;;26.63;;
21162;SDS011;10739;52.198;20.908;2023-10-19T06:55:17;39.72;;;25.20;;
21162;SDS011;10739;52.198;20.908;2023-10-19T06:57:51;43.83;;;26.65;;
21162;SDS011;10739;52.198;20.908;2023-10-19T07:00:20;45.47;;;27.00;;
21162;SDS011;10739;52.198;20.908;2023-10-19T07:02:52;40.63;;;25.63;;
21162;SDS011;10739;52.198;20.908;2023-10-19T07:05:21;37.78;;;24.17;;
21162;SDS011;10739;52.198;20.908;2023-10-19T07:07:55;42.35;;;25.55;;
21162;SDS011;10739;52.198;20.908;2023-10-19T07:10:25;45.38;;;23.98;;
21162;SDS011;10739;52.198;20.908;2023-10-19T07:12:53;37.25;;;22.60;;
21162;SDS011;10739;52.198;20.908;2023-10-19T07:15:22;35.33;;;22.85;;
21162;SDS011;10739;52.198;20.908;2023-10-19T07:17:50;36.97;;;22.20;;
21162;SDS011;10739;52.198;20.908;2023-10-19T07:20:20;36.53;;;21.75;;
21162;SDS011;10739;52.198;20.908;2023-10-19T07:23:04;34.85;;;20.77;;
21162;SDS011;10739;52.198;20.908;2023-10-19T07:25:52;35.60;;;20.80;;
21162;SDS011;10739;52.198;20.908;2023-10-19T07:28:22;32.65;;;20.25;;
21162;SDS011;10739;52.198;20.908;2023-10-19T07:30:51;39.90;;;20.15;;
21162;SDS011;10739;52.198;20.908;2023-10-19T07:33:18;37.58;;;21.00;;
21162;SDS011;10739;52.198;20.908;2023-10-19T07:35:45;31.30;;;19.55;;
21162;SDS011;10739;52.198;20.908;2023-10-19T07:38:13;30.55;;;19.67;;
21162;SDS011;10739;52.198;20.908;2023-10-19T07:40:40;33.63;;;18.00;;
21162;SDS011;10739;52.198;20.908;2023-10-19T07:43:11;31.20;;;18.83;;
21162;SDS011;10739;52.198;20.908;2023-10-19T07:45:37;29.23;;;18.30;;
21162;SDS011;10739;52.198;20.908;2023-10-19T07:48:04;30.02;;;19.25;;
21162;SDS011;10739;52.198;20.908;2023-10-19T07:50:38;32.47;;;21.65;;
21162;SDS011;10739;52.198;20.908;2023-10-19T07:53:08;33.85;;;21.95;;
21162;SDS011;10739;52.198;20.908;2023-10-19T07:55:34;29.02;;;20.23;;
21162;SDS011;10739;52.198;20.908;2023-10-19T07:58:01;36.00;;;20.63;;
21162;SDS011;10739;52.198;20.908;2023-10-19T08:00:29;31.65;;;20.52;;
21162;SDS011;10739;52.198;20.908;2023-10-19T08:02:56;28.73;;;20.02;;
21162;SDS011;10739;52.198;20.908;2023-10-19T08:05:23;32.85;;;20.88;;
21162;SDS011;10739;52.198;20.908;2023-10-19T08:07:50;29.40;;;18.95;;
21162;SDS011;10739;52.198;20.908;2023-10-19T08:10:16;29.05;;;19.70;;
21162;SDS011;10739;52.198;20.908;2023-10-19T08:12:45;29.83;;;19.73;;
21162;SDS011;10739;52.198;20.908;2023-10-19T08:15:14;29.98;;;18.88;;
21162;SDS011;10739;52.198;20.908;2023-10-19T08:17:43;29.45;;;18.70;;
21162;SDS011;10739;52.198;20.908;2023-10-19T08:20:11;31.50;;;17.58;;
21162;SDS011;10739;52.198;20.908;2023-10-19T08:22:43;28.88;;;17.25;;
21162;SDS011;10739;52.198;20.908;2023-10-19T08:25:12;26.63;;;17.10;;
21162;SDS011;10739;52.198;20.908;2023-10-19T08:27:40;31.80;;;16.52;;
21162;SDS011;10739;52.198;20.908;2023-10-19T08:30:12;31.42;;;16.50;;
21162;SDS011;10739;52.198;20.908;2023-10-19T08:32:43;24.73;;;16.20;;
21162;SDS011;10739;52.198;20.908;2023-10-19T08:35:14;27.27;;;16.55;;
21162;SDS011;10739;52.198;20.908;2023-10-19T08:37:46;32.47;;;15.83;;
21162;SDS011;10739;52.198;20.908;2023-10-19T08:40:13;24.02;;;15.95;;
21162;SDS011;10739;52.198;20.908;2023-10-19T08:42:49;26.77;;;15.27;;
21162;SDS011;10739;52.198;20.908;2023-10-19T08:45:16;24.17;;;15.00;;
21162;SDS011;10739;52.198;20.908;2023-10-19T08:47:48;24.25;;;14.90;;
21162;SDS011;10739;52.198;20.908;2023-10-19T08:50:21;22.90;;;14.32;;
21162;SDS011;10739;52.198;20.908;2023-10-19T08:52:56;30.35;;;15.77;;
21162;SDS011;10739;52.198;20.908;2023-10-19T08:55:24;22.60;;;14.25;;
21162;SDS011;10739;52.198;20.908;2023-10-19T08:57:51;19.55;;;13.77;;
21162;SDS011;10739;52.198;20.908;2023-10-19T09:00:19;25.83;;;14.80;;
21162;SDS011;10739;52.198;20.908;2023-10-19T09:02:51;21.25;;;13.90;;
21162;SDS011;10739;52.198;20.908;2023-10-19T09:05:21;20.13;;;14.63;;
21162;SDS011;10739;52.198;20.908;2023-10-19T09:07:48;20.90;;;14.88;;
21162;SDS011;10739;52.198;20.908;2023-10-19T09:15:27;24.98;;;15.48;;
21162;SDS011;10739;52.198;20.908;2023-10-19T09:20:45;21.65;;;14.13;;
21162;SDS011;10739;52.198;20.908;2023-10-19T09:23:34;21.75;;;13.82;;
21162;SDS011;10739;52.198;20.908;2023-10-19T09:26:01;24.90;;;14.32;;
21162;SDS011;10739;52.198;20.908;2023-10-19T09:28:29;20.33;;;14.05;;
21162;SDS011;10739;52.198;20.908;2023-10-19T09:30:58;29.65;;;14.75;;
21162;SDS011;10739;52.198;20.908;2023-10-19T09:33:26;25.17;;;13.13;;
21162;SDS011;10739;52.198;20.908;2023-10-19T09:35:54;21.15;;;14.27;;
21162;SDS011;10739;52.198;20.908;2023-10-19T09:38:26;19.77;;;13.45;;
21162;SDS011;10739;52.198;20.908;2023-10-19T09:40:53;17.05;;;12.50;;
21162;SDS011;10739;52.198;20.908;2023-10-19T09:43:27;19.52;;;13.30;;
21162;SDS011;10739;52.198;20.908;2023-10-19T09:46:11;21.80;;;13.10;;
21162;SDS011;10739;52.198;20.908;2023-10-19T09:48:47;16.08;;;10.85;;
21162;SDS011;10739;52.198;20.908;2023-10-19T09:51:15;22.38;;;12.93;;
21162;SDS011;10739;52.198;20.908;2023-10-19T09:56:58;19.98;;;12.05;;
21162;SDS011;10739;52.198;20.908;2023-10-19T09:59:38;20.35;;;12.73;;
21162;SDS011;10739;52.198;20.908;2023-10-19T10:02:12;20.13;;;11.73;;
21162;SDS011;10739;52.198;20.908;2023-10-19T10:04:43;15.15;;;10.70;;
21162;SDS011;10739;52.198;20.908;2023-10-19T10:07:14;17.58;;;11.82;;
21162;SDS011;10739;52.198;20.908;2023-10-19T10:09:41;16.15;;;9.93;;
21162;SDS011;10739;52.198;20.908;2023-10-19T10:12:15;26.23;;;10.13;;
21162;SDS011;10739;52.198;20.908;2023-10-19T10:14:57;16.90;;;10.27;;
21162;SDS011;10739;52.198;20.908;2023-10-19T10:17:41;13.10;;;9.07;;
21162;SDS011;10739;52.198;20.908;2023-10-19T10:22:40;16.10;;;10.52;;
21162;SDS011;10739;52.198;20.908;2023-10-19T10:25:07;16.98;;;10.35;;
21162;SDS011;10739;52.198;20.908;2023-10-19T10:27:50;15.95;;;10.43;;
21162;SDS011;10739;52.198;20.908;2023-10-19T10:30:17;16.52;;;9.32;;
21162;SDS011;10739;52.198;20.908;2023-10-19T10:38:07;16.67;;;10.13;;
21162;SDS011;10739;52.198;20.908;2023-10-19T10:40:44;18.88;;;9.80;;
21162;SDS011;10739;52.198;20.908;2023-10-19T10:43:15;13.23;;;9.82;;
21162;SDS011;10739;52.198;20.908;2023-10-19T10:45:43;18.25;;;10.68;;
21162;SDS011;10739;52.198;20.908;2023-10-19T10:48:13;14.43;;;10.15;;
21162;SDS011;10739;52.198;20.908;2023-10-19T10:50:44;19.45;;;10.98;;
21162;SDS011;10739;52.198;20.908;2023-10-19T10:53:12;14.95;;;10.20;;
21162;SDS011;10739;52.198;20.908;2023-10-19T10:55:43;19.20;;;9.85;;
21162;SDS011;10739;52.198;20.908;2023-10-19T10:58:09;17.52;;;10.00;;
21162;SDS011;10739;52.198;20.908;2023-10-19T11:00:43;14.38;;;9.45;;
21162;SDS011;10739;52.198;20.908;2023-10-19T11:03:17;16.63;;;9.55;;
21162;SDS011;10739;52.198;20.908;2023-10-19T11:05:43;15.40;;;9.10;;
21162;SDS011;10739;52.198;20.908;2023-10-19T11:08:13;13.98;;;8.88;;
21162;SDS011;10739;52.198;20.908;2023-10-19T11:10:46;14.43;;;9.45;;
21162;SDS011;10739;52.198;20.908;2023-10-19T11:13:17;18.70;;;10.48;;
21162;SDS011;10739;52.198;20.908;2023-10-19T11:15:51;23.95;;;9.85;;
21162;SDS011;10739;52.198;20.908;2023-10-19T11:18:40;18.00;;;9.38;;
21162;SDS011;10739;52.198;20.908;2023-10-19T11:21:11;18.77;;;9.57;;
21162;SDS011;10739;52.198;20.908;2023-10-19T11:23:49;20.92;;;9.52;;
21162;SDS011;10739;52.198;20.908;2023-10-19T11:26:22;13.30;;;8.77;;
21162;SDS011;10739;52.198;20.908;2023-10-19T11:29:02;17.13;;;9.88;;
21162;SDS011;10739;52.198;20.908;2023-10-19T11:31:35;16.80;;;9.30;;
21162;SDS011;10739;52.198;20.908;2023-10-19T11:34:04;18.75;;;9.38;;
21162;SDS011;10739;52.198;20.908;2023-10-19T11:36:31;13.00;;;9.20;;
21162;SDS011;10739;52.198;20.908;2023-10-19T11:38:59;17.30;;;8.77;;
21162;SDS011;10739;52.198;20.908;2023-10-19T11:41:26;14.27;;;9.25;;
21162;SDS011;10739;52.198;20.908;2023-10-19T11:43:52;14.02;;;9.15;;
21162;SDS011;10739;52.198;20.908;2023-10-19T11:46:18;16.80;;;9.20;;
21162;SDS011;10739;52.198;20.908;2023-10-19T11:48:48;19.17;;;9.55;;
21162;SDS011;10739;52.198;20.908;2023-10-19T11:51:14;16.10;;;9.25;;
21162;SDS011;10739;52.198;20.908;2023-10-19T11:53:41;15.70;;;9.13;;
21162;SDS011;10739;52.198;20.908;2023-10-19T11:56:09;15.05;;;8.63;;
21162;SDS011;10739;52.198;20.908;2023-10-19T11:58:42;14.75;;;9.20;;
21162;SDS011;10739;52.198;20.908;2023-10-19T12:01:10;17.30;;;8.80;;
21162;SDS011;10739;52.198;20.908;2023-10-19T12:03:42;20.27;;;9.43;;
21162;SDS011;10739;52.198;20.908;2023-10-19T12:06:11;12.85;;;8.88;;
21162;SDS011;10739;52.198;20.908;2023-10-19T12:08:39;16.80;;;10.02;;
21162;SDS011;10739;52.198;20.908;2023-10-19T12:11:05;18.20;;;9.98;;
21162;SDS011;10739;52.198;20.908;2023-10-19T12:13:42;12.65;;;9.23;;
21162;SDS011;10739;52.198;20.908;2023-10-19T12:16:09;14.93;;;10.02;;
21162;SDS011;10739;52.198;20.908;2023-10-19T12:18:41;13.90;;;9.30;;
21162;SDS011;10739;52.198;20.908;2023-10-19T12:21:09;16.40;;;10.13;;
21162;SDS011;10739;52.198;20.908;2023-10-19T12:23:43;17.05;;;10.50;;
21162;SDS011;10739;52.198;20.908;2023-10-19T12:26:10;13.07;;;9.40;;
21162;SDS011;10739;52.198;20.908;2023-10-19T12:28:42;21.15;;;10.50;;
21162;SDS011;10739;52.198;20.908;2023-10-19T12:31:12;14.57;;;9.75;;
21162;SDS011;10739;52.198;20.908;2023-10-19T12:33:38;19.20;;;10.27;;
21162;SDS011;10739;52.198;20.908;2023-10-19T12:36:07;19.77;;;10.50;;
21162;SDS011;10739;52.198;20.908;2023-10-19T12:38:49;20.10;;;10.55;;
21162;SDS011;10739;52.198;20.908;2023-10-19T12:41:16;17.15;;;9.25;;
21162;SDS011;10739;52.198;20.908;2023-10-19T12:43:44;17.55;;;10.48;;
21162;SDS011;10739;52.198;20.908;2023-10-19T12:46:13;18.27;;;10.93;;
21162;SDS011;10739;52.198;20.908;2023-10-19T12:48:41;16.65;;;10.52;;
21162;SDS011;10739;52.198;20.908;2023-10-19T12:51:08;18.15;;;11.50;;
21162;SDS011;10739;52.198;20.908;2023-10-19T12:53:37;20.88;;;10.90;;
21162;SDS011;10739;52.198;20.908;2023-10-19T12:56:06;18.80;;;11.75;;
21162;SDS011;10739;52.198;20.908;2023-10-19T12:58:35;16.13;;;10.70;;
21162;SDS011;10739;52.198;20.908;2023-10-19T13:01:03;16.02;;;11.05;;
21162;SDS011;10739;52.198;20.908;2023-10-19T13:03:30;17.27;;;12.05;;
21162;SDS011;10739;52.198;20.908;2023-10-19T13:05:58;20.38;;;11.65;;
21162;SDS011;10739;52.198;20.908;2023-10-19T13:08:24;16.52;;;10.18;;
21162;SDS011;10739;52.198;20.908;2023-10-19T13:10:52;21.10;;;10.60;;
21162;SDS011;10739;52.198;20.908;2023-10-19T13:13:19;26.63;;;11.77;;
21162;SDS011;10739;52.198;20.908;2023-10-19T13:15:49;17.23;;;11.00;;
21162;SDS011;10739;52.198;20.908;2023-10-19T13:18:15;24.77;;;11.43;;
21162;SDS011;10739;52.198;20.908;2023-10-19T13:20:46;18.70;;;11.68;;
21162;SDS011;10739;52.198;20.908;2023-10-19T13:23:14;17.05;;;10.70;;
21162;SDS011;10739;52.198;20.908;2023-10-19T13:25:47;18.67;;;11.70;;
21162;SDS011;10739;52.198;20.908;2023-10-19T13:28:33;18.48;;;11.50;;
21162;SDS011;10739;52.198;20.908;2023-10-19T13:31:03;19.30;;;10.95;;
21162;SDS011;10739;52.198;20.908;2023-10-19T13:33:29;18.95;;;11.40;;
21162;SDS011;10739;52.198;20.908;2023-10-19T13:35:55;17.17;;;10.93;;
21162;SDS011;10739;52.198;20.908;2023-10-19T13:38:22;18.85;;;12.38;;
21162;SDS011;10739;52.198;20.908;2023-10-19T13:40:49;18.70;;;12.30;;
21162;SDS011;10739;52.198;20.908;2023-10-19T13:43:15;21.02;;;12.38;;
21162;SDS011;10739;52.198;20.908;2023-10-19T13:45:44;18.52;;;11.15;;
21162;SDS011;10739;52.198;20.908;2023-10-19T13:48:12;14.25;;;9.82;;
21162;SDS011;10739;52.198;20.908;2023-10-19T13:50:45;18.73;;;10.88;;
21162;SDS011;10739;52.198;20.908;2023-10-19T13:53:14;16.20;;;11.10;;
21162;SDS011;10739;52.198;20.908;2023-10-19T13:55:42;16.30;;;10.68;;
21162;SDS011;10739;52.198;20.908;2023-10-19T13:58:08;19.85;;;11.20;;
21162;SDS011;10739;52.198;20.908;2023-10-19T14:00:35;15.73;;;11.18;;
21162;SDS011;10739;52.198;20.908;2023-10-19T14:03:04;18.90;;;11.27;;
21162;SDS011;10739;52.198;20.908;2023-10-19T14:05:40;19.83;;;11.48;;
21162;SDS011;10739;52.198;20.908;2023-10-19T14:08:13;19.30;;;12.50;;
21162;SDS011;10739;52.198;20.908;2023-10-19T14:10:41;22.38;;;11.45;;
21162;SDS011;10739;52.198;20.908;2023-10-19T14:13:08;20.65;;;10.82;;
21162;SDS011;10739;52.198;20.908;2023-10-19T14:15:37;21.15;;;11.00;;
21162;SDS011;10739;52.198;20.908;2023-10-19T14:18:04;16.30;;;11.60;;
21162;SDS011;10739;52.198;20.908;2023-10-19T14:20:31;18.08;;;11.52;;
21162;SDS011;10739;52.198;20.908;2023-10-19T14:22:59;21.90;;;11.68;;
21162;SDS011;10739;52.198;20.908;2023-10-19T14:25:27;13.02;;;10.07;;
21162;SDS011;10739;52.198;20.908;2023-10-19T14:27:54;15.35;;;10.95;;
21162;SDS011;10739;52.198;20.908;2023-10-19T14:30:25;15.10;;;10.02;;
21162;SDS011;10739;52.198;20.908;2023-10-19T14:32:56;21.40;;;11.90;;
21162;SDS011;10739;52.198;20.908;2023-10-19T14:35:23;22.17;;;12.18;;
21162;SDS011;10739;52.198;20.908;2023-10-19T14:37:51;17.13;;;10.48;;
21162;SDS011;10739;52.198;20.908;2023-10-19T14:40:26;19.10;;;11.05;;
21162;SDS011;10739;52.198;20.908;2023-10-19T14:42:53;21.75;;;11.65;;
21162;SDS011;10739;52.198;20.908;2023-10-19T14:45:23;22.38;;;12.02;;
21162;SDS011;10739;52.198;20.908;2023-10-19T14:47:54;18.83;;;11.40;;
21162;SDS011;10739;52.198;20.908;2023-10-19T14:50:21;27.35;;;12.43;;
21162;SDS011;10739;52.198;20.908;2023-10-19T14:52:48;22.80;;;12.00;;
21162;SDS011;10739;52.198;20.908;2023-10-19T14:55:17;19.85;;;11.85;;
21162;SDS011;10739;52.198;20.908;2023-10-19T14:57:45;25.52;;;13.52;;